sensor_id;sensor_type;location;lat;lon;timestamp;P1;durP1;ratioP1;P2;durP2;ratioP2
61460;SDS011;47325;50.506;4.472;2022-10-29T00:02:24;10.90;;;4.50;;
61460;SDS011;47325;50.506;4.472;2022-10-29T00:08:07;8.60;;;3.90;;
61460;SDS011;47325;50.506;4.472;2022-10-29T00:13:51;10.10;;;4.00;;
61460;SDS011;47325;50.506;4.472;2022-10-29T00:19:35;10.30;;;3.80;;
61460;SDS011;47325;50.506;4.472;2022-10-29T00:25:18;7.30;;;3.90;;
61460;SDS011;47325;50.506;4.472;2022-10-29T00:31:05;8.10;;;3.90;;
61460;SDS011;47325;50.506;4.472;2022-10-29T00:36:48;7.50;;;4.00;;
61460;SDS011;47325;50.506;4.472;2022-10-29T00:42:32;7.80;;;4.10;;
61460;SDS011;47325;50.506;4.472;2022-10-29T00:48:15;7.50;;;3.90;;
61460;SDS011;47325;50.506;4.472;2022-10-29T00:53:59;8.40;;;4.10;;
61460;SDS011;47325;50.506;4.472;2022-10-29T00:59:43;7.20;;;3.80;;
61460;SDS011;47325;50.506;4.472;2022-10-29T01:05:28;7.40;;;3.90;;
61460;SDS011;47325;50.506;4.472;2022-10-29T01:11:14;8.20;;;3.80;;
61460;SDS011;47325;50.506;4.472;2022-10-29T01:17:06;6.80;;;3.40;;
61460;SDS011;47325;50.506;4.472;2022-10-29T01:22:56;7.60;;;4.00;;
61460;SDS011;47325;50.506;4.472;2022-10-29T01:28:45;8.10;;;4.00;;
61460;SDS011;47325;50.506;4.472;2022-10-29T01:34:33;8.00;;;4.10;;
61460;SDS011;47325;50.506;4.472;2022-10-29T01:40:22;7.50;;;4.00;;
61460;SDS011;47325;50.506;4.472;2022-10-29T01:46:08;7.60;;;4.00;;
61460;SDS011;47325;50.506;4.472;2022-10-29T01:51:53;7.90;;;3.90;;
61460;SDS011;47325;50.506;4.472;2022-10-29T01:57:38;9.80;;;3.90;;
61460;SDS011;47325;50.506;4.472;2022-10-29T02:03:24;6.40;;;3.70;;
61460;SDS011;47325;50.506;4.472;2022-10-29T02:09:11;7.50;;;4.10;;
61460;SDS011;47325;50.506;4.472;2022-10-29T02:14:57;7.50;;;3.90;;
61460;SDS011;47325;50.506;4.472;2022-10-29T02:20:44;8.10;;;3.70;;
61460;SDS011;47325;50.506;4.472;2022-10-29T02:26:27;7.40;;;3.90;;
61460;SDS011;47325;50.506;4.472;2022-10-29T02:32:10;8.10;;;4.20;;
61460;SDS011;47325;50.506;4.472;2022-10-29T02:37:54;8.90;;;4.00;;
61460;SDS011;47325;50.506;4.472;2022-10-29T02:43:39;7.60;;;3.70;;
61460;SDS011;47325;50.506;4.472;2022-10-29T02:49:22;6.10;;;3.50;;
61460;SDS011;47325;50.506;4.472;2022-10-29T02:55:06;8.00;;;3.90;;
61460;SDS011;47325;50.506;4.472;2022-10-29T03:00:51;7.80;;;3.90;;
61460;SDS011;47325;50.506;4.472;2022-10-29T03:06:35;8.40;;;3.90;;
61460;SDS011;47325;50.506;4.472;2022-10-29T03:12:19;5.80;;;3.50;;
61460;SDS011;47325;50.506;4.472;2022-10-29T03:18:03;7.00;;;3.90;;
61460;SDS011;47325;50.506;4.472;2022-10-29T03:23:46;7.60;;;4.10;;
61460;SDS011;47325;50.506;4.472;2022-10-29T03:29:29;8.00;;;4.20;;
61460;SDS011;47325;50.506;4.472;2022-10-29T03:35:13;7.10;;;3.70;;
61460;SDS011;47325;50.506;4.472;2022-10-29T03:40:57;7.40;;;3.70;;
61460;SDS011;47325;50.506;4.472;2022-10-29T03:46:40;8.60;;;3.80;;
61460;SDS011;47325;50.506;4.472;2022-10-29T03:52:23;7.60;;;3.80;;
61460;SDS011;47325;50.506;4.472;2022-10-29T03:58:07;6.70;;;3.60;;
61460;SDS011;47325;50.506;4.472;2022-10-29T04:03:51;7.60;;;3.60;;
61460;SDS011;47325;50.506;4.472;2022-10-29T04:09:34;10.20;;;3.90;;
61460;SDS011;47325;50.506;4.472;2022-10-29T04:15:17;8.50;;;3.90;;
61460;SDS011;47325;50.506;4.472;2022-10-29T04:21:02;7.80;;;3.70;;
61460;SDS011;47325;50.506;4.472;2022-10-29T04:27:07;7.60;;;3.80;;
61460;SDS011;47325;50.506;4.472;2022-10-29T04:33:10;7.70;;;3.80;;
61460;SDS011;47325;50.506;4.472;2022-10-29T04:38:54;5.90;;;3.90;;
61460;SDS011;47325;50.506;4.472;2022-10-29T04:44:37;6.80;;;3.80;;
61460;SDS011;47325;50.506;4.472;2022-10-29T04:50:20;7.10;;;3.90;;
61460;SDS011;47325;50.506;4.472;2022-10-29T04:56:03;8.00;;;3.70;;
61460;SDS011;47325;50.506;4.472;2022-10-29T05:01:47;10.30;;;4.00;;
61460;SDS011;47325;50.506;4.472;2022-10-29T05:07:31;7.60;;;3.70;;
61460;SDS011;47325;50.506;4.472;2022-10-29T05:13:14;6.80;;;3.70;;
61460;SDS011;47325;50.506;4.472;2022-10-29T05:18:58;5.80;;;3.80;;
61460;SDS011;47325;50.506;4.472;2022-10-29T05:24:41;8.50;;;3.70;;
61460;SDS011;47325;50.506;4.472;2022-10-29T05:30:24;8.20;;;3.90;;
61460;SDS011;47325;50.506;4.472;2022-10-29T05:36:08;7.60;;;3.70;;
61460;SDS011;47325;50.506;4.472;2022-10-29T05:41:51;8.20;;;3.70;;
61460;SDS011;47325;50.506;4.472;2022-10-29T05:47:35;5.30;;;3.70;;
61460;SDS011;47325;50.506;4.472;2022-10-29T05:53:18;8.10;;;3.80;;
61460;SDS011;47325;50.506;4.472;2022-10-29T05:59:01;7.20;;;4.00;;
61460;SDS011;47325;50.506;4.472;2022-10-29T06:04:44;6.30;;;3.80;;
61460;SDS011;47325;50.506;4.472;2022-10-29T06:10:28;8.30;;;3.90;;
61460;SDS011;47325;50.506;4.472;2022-10-29T06:16:11;7.60;;;3.90;;
61460;SDS011;47325;50.506;4.472;2022-10-29T06:21:54;9.50;;;3.50;;
61460;SDS011;47325;50.506;4.472;2022-10-29T06:27:42;6.20;;;4.00;;
61460;SDS011;47325;50.506;4.472;2022-10-29T06:33:25;7.20;;;3.70;;
61460;SDS011;47325;50.506;4.472;2022-10-29T06:39:11;8.60;;;3.80;;
61460;SDS011;47325;50.506;4.472;2022-10-29T06:44:54;7.00;;;4.00;;
61460;SDS011;47325;50.506;4.472;2022-10-29T06:50:37;8.90;;;3.70;;
61460;SDS011;47325;50.506;4.472;2022-10-29T06:56:23;6.80;;;3.60;;
61460;SDS011;47325;50.506;4.472;2022-10-29T07:02:08;6.70;;;3.70;;
61460;SDS011;47325;50.506;4.472;2022-10-29T07:07:52;8.90;;;4.00;;
61460;SDS011;47325;50.506;4.472;2022-10-29T07:13:37;7.10;;;3.40;;
61460;SDS011;47325;50.506;4.472;2022-10-29T07:19:21;6.60;;;3.50;;
61460;SDS011;47325;50.506;4.472;2022-10-29T07:25:04;6.10;;;3.70;;
61460;SDS011;47325;50.506;4.472;2022-10-29T07:30:48;6.20;;;3.50;;
61460;SDS011;47325;50.506;4.472;2022-10-29T07:36:32;9.00;;;3.50;;
61460;SDS011;47325;50.506;4.472;2022-10-29T07:42:16;7.80;;;3.40;;
61460;SDS011;47325;50.506;4.472;2022-10-29T07:48:03;7.00;;;3.60;;
61460;SDS011;47325;50.506;4.472;2022-10-29T07:53:48;6.60;;;3.60;;
61460;SDS011;47325;50.506;4.472;2022-10-29T07:59:31;6.30;;;3.70;;
61460;SDS011;47325;50.506;4.472;2022-10-29T08:05:15;7.20;;;3.70;;
61460;SDS011;47325;50.506;4.472;2022-10-29T08:11:02;8.00;;;3.30;;
61460;SDS011;47325;50.506;4.472;2022-10-29T08:16:45;8.60;;;3.30;;
61460;SDS011;47325;50.506;4.472;2022-10-29T08:22:29;13.80;;;3.80;;
61460;SDS011;47325;50.506;4.472;2022-10-29T08:28:13;10.90;;;3.70;;
61460;SDS011;47325;50.506;4.472;2022-10-29T08:33:57;10.80;;;4.20;;
61460;SDS011;47325;50.506;4.472;2022-10-29T08:39:40;11.70;;;3.90;;
61460;SDS011;47325;50.506;4.472;2022-10-29T08:45:26;9.90;;;4.10;;
61460;SDS011;47325;50.506;4.472;2022-10-29T08:51:14;12.30;;;3.80;;
61460;SDS011;47325;50.506;4.472;2022-10-29T08:57:00;9.80;;;3.70;;
61460;SDS011;47325;50.506;4.472;2022-10-29T09:02:47;10.70;;;3.70;;
61460;SDS011;47325;50.506;4.472;2022-10-29T09:08:36;10.20;;;3.90;;
61460;SDS011;47325;50.506;4.472;2022-10-29T09:20:24;10.10;;;3.40;;
61460;SDS011;47325;50.506;4.472;2022-10-29T09:26:12;10.30;;;3.70;;
61460;SDS011;47325;50.506;4.472;2022-10-29T09:31:58;11.30;;;3.70;;
61460;SDS011;47325;50.506;4.472;2022-10-29T09:37:44;8.40;;;3.40;;
61460;SDS011;47325;50.506;4.472;2022-10-29T09:43:36;8.60;;;3.30;;
61460;SDS011;47325;50.506;4.472;2022-10-29T09:49:24;11.70;;;4.00;;
61460;SDS011;47325;50.506;4.472;2022-10-29T09:55:14;8.60;;;3.50;;
61460;SDS011;47325;50.506;4.472;2022-10-29T10:00:59;9.90;;;3.40;;
61460;SDS011;47325;50.506;4.472;2022-10-29T10:06:59;8.50;;;3.50;;
61460;SDS011;47325;50.506;4.472;2022-10-29T10:18:41;9.20;;;3.40;;
61460;SDS011;47325;50.506;4.472;2022-10-29T10:24:33;9.50;;;3.40;;
61460;SDS011;47325;50.506;4.472;2022-10-29T10:30:17;6.60;;;3.30;;
61460;SDS011;47325;50.506;4.472;2022-10-29T10:36:03;10.40;;;3.60;;
61460;SDS011;47325;50.506;4.472;2022-10-29T10:41:47;7.80;;;3.30;;
61460;SDS011;47325;50.506;4.472;2022-10-29T10:47:31;9.50;;;3.50;;
61460;SDS011;47325;50.506;4.472;2022-10-29T10:53:18;10.30;;;3.30;;
61460;SDS011;47325;50.506;4.472;2022-10-29T10:59:04;9.00;;;3.40;;
61460;SDS011;47325;50.506;4.472;2022-10-29T11:04:49;10.50;;;3.50;;
61460;SDS011;47325;50.506;4.472;2022-10-29T11:10:37;12.20;;;3.70;;
61460;SDS011;47325;50.506;4.472;2022-10-29T11:16:25;8.60;;;3.20;;
61460;SDS011;47325;50.506;4.472;2022-10-29T11:22:12;9.00;;;3.60;;
61460;SDS011;47325;50.506;4.472;2022-10-29T11:28:08;8.50;;;3.20;;
61460;SDS011;47325;50.506;4.472;2022-10-29T11:33:51;10.20;;;3.20;;
61460;SDS011;47325;50.506;4.472;2022-10-29T11:39:38;9.10;;;3.40;;
61460;SDS011;47325;50.506;4.472;2022-10-29T11:45:27;8.50;;;3.00;;
61460;SDS011;47325;50.506;4.472;2022-10-29T11:51:16;14.10;;;3.30;;
61460;SDS011;47325;50.506;4.472;2022-10-29T11:57:02;12.20;;;3.50;;
61460;SDS011;47325;50.506;4.472;2022-10-29T12:02:53;14.50;;;3.50;;
61460;SDS011;47325;50.506;4.472;2022-10-29T12:08:44;13.60;;;3.50;;
61460;SDS011;47325;50.506;4.472;2022-10-29T12:14:30;8.10;;;3.10;;
61460;SDS011;47325;50.506;4.472;2022-10-29T12:20:19;9.20;;;2.80;;
61460;SDS011;47325;50.506;4.472;2022-10-29T12:26:13;12.10;;;3.40;;
61460;SDS011;47325;50.506;4.472;2022-10-29T12:32:19;10.60;;;3.40;;
61460;SDS011;47325;50.506;4.472;2022-10-29T12:38:11;12.20;;;3.30;;
61460;SDS011;47325;50.506;4.472;2022-10-29T12:43:59;10.40;;;3.80;;
61460;SDS011;47325;50.506;4.472;2022-10-29T12:49:49;10.70;;;3.10;;
61460;SDS011;47325;50.506;4.472;2022-10-29T12:55:35;7.60;;;3.10;;
61460;SDS011;47325;50.506;4.472;2022-10-29T13:07:33;11.10;;;3.40;;
61460;SDS011;47325;50.506;4.472;2022-10-29T13:13:22;13.50;;;3.70;;
61460;SDS011;47325;50.506;4.472;2022-10-29T13:19:11;22.10;;;11.30;;
61460;SDS011;47325;50.506;4.472;2022-10-29T13:30:51;16.30;;;8.40;;
61460;SDS011;47325;50.506;4.472;2022-10-29T13:36:38;16.10;;;8.00;;
61460;SDS011;47325;50.506;4.472;2022-10-29T13:42:21;16.00;;;7.50;;
61460;SDS011;47325;50.506;4.472;2022-10-29T13:48:05;17.10;;;7.60;;
61460;SDS011;47325;50.506;4.472;2022-10-29T13:53:50;14.90;;;7.60;;
61460;SDS011;47325;50.506;4.472;2022-10-29T13:59:38;18.90;;;7.70;;
61460;SDS011;47325;50.506;4.472;2022-10-29T14:05:24;19.00;;;8.00;;
61460;SDS011;47325;50.506;4.472;2022-10-29T14:11:11;17.80;;;7.00;;
61460;SDS011;47325;50.506;4.472;2022-10-29T14:22:52;17.80;;;7.70;;
61460;SDS011;47325;50.506;4.472;2022-10-29T14:28:37;17.30;;;7.90;;
61460;SDS011;47325;50.506;4.472;2022-10-29T14:34:25;25.50;;;8.00;;
61460;SDS011;47325;50.506;4.472;2022-10-29T14:40:12;28.50;;;8.10;;
61460;SDS011;47325;50.506;4.472;2022-10-29T14:46:07;20.90;;;8.10;;
61460;SDS011;47325;50.506;4.472;2022-10-29T14:51:50;19.40;;;7.70;;
61460;SDS011;47325;50.506;4.472;2022-10-29T14:57:38;18.40;;;7.80;;
61460;SDS011;47325;50.506;4.472;2022-10-29T15:03:22;19.30;;;7.50;;
61460;SDS011;47325;50.506;4.472;2022-10-29T15:09:13;20.50;;;7.30;;
61460;SDS011;47325;50.506;4.472;2022-10-29T15:15:05;17.50;;;7.30;;
61460;SDS011;47325;50.506;4.472;2022-10-29T15:20:46;18.60;;;7.20;;
61460;SDS011;47325;50.506;4.472;2022-10-29T15:26:29;19.90;;;7.80;;
61460;SDS011;47325;50.506;4.472;2022-10-29T15:32:15;18.70;;;7.00;;
61460;SDS011;47325;50.506;4.472;2022-10-29T15:37:59;18.20;;;7.00;;
61460;SDS011;47325;50.506;4.472;2022-10-29T15:43:51;15.30;;;6.90;;
61460;SDS011;47325;50.506;4.472;2022-10-29T15:49:34;14.70;;;6.70;;
61460;SDS011;47325;50.506;4.472;2022-10-29T15:55:19;14.60;;;6.00;;
61460;SDS011;47325;50.506;4.472;2022-10-29T16:01:09;17.30;;;6.70;;
61460;SDS011;47325;50.506;4.472;2022-10-29T16:06:53;17.50;;;6.30;;
61460;SDS011;47325;50.506;4.472;2022-10-29T16:12:37;12.90;;;6.20;;
61460;SDS011;47325;50.506;4.472;2022-10-29T16:18:20;16.00;;;6.20;;
61460;SDS011;47325;50.506;4.472;2022-10-29T16:24:04;13.90;;;6.00;;
61460;SDS011;47325;50.506;4.472;2022-10-29T16:29:49;15.20;;;6.10;;
61460;SDS011;47325;50.506;4.472;2022-10-29T16:35:33;14.00;;;5.60;;
61460;SDS011;47325;50.506;4.472;2022-10-29T16:41:17;11.70;;;5.50;;
61460;SDS011;47325;50.506;4.472;2022-10-29T16:47:01;14.00;;;5.90;;
61460;SDS011;47325;50.506;4.472;2022-10-29T16:52:45;11.80;;;5.10;;
61460;SDS011;47325;50.506;4.472;2022-10-29T16:58:29;11.90;;;6.20;;
61460;SDS011;47325;50.506;4.472;2022-10-29T17:04:12;14.30;;;5.10;;
61460;SDS011;47325;50.506;4.472;2022-10-29T17:09:56;14.10;;;5.60;;
61460;SDS011;47325;50.506;4.472;2022-10-29T17:15:41;11.40;;;5.20;;
61460;SDS011;47325;50.506;4.472;2022-10-29T17:21:24;12.30;;;5.10;;
61460;SDS011;47325;50.506;4.472;2022-10-29T17:27:08;10.20;;;5.30;;
61460;SDS011;47325;50.506;4.472;2022-10-29T17:32:52;12.50;;;5.10;;
61460;SDS011;47325;50.506;4.472;2022-10-29T17:38:36;9.90;;;5.10;;
61460;SDS011;47325;50.506;4.472;2022-10-29T17:44:21;11.00;;;4.70;;
61460;SDS011;47325;50.506;4.472;2022-10-29T17:50:05;11.30;;;5.00;;
61460;SDS011;47325;50.506;4.472;2022-10-29T17:55:48;9.90;;;4.60;;
61460;SDS011;47325;50.506;4.472;2022-10-29T18:01:31;13.00;;;4.80;;
61460;SDS011;47325;50.506;4.472;2022-10-29T18:07:15;11.30;;;4.80;;
61460;SDS011;47325;50.506;4.472;2022-10-29T18:12:59;10.60;;;4.40;;
61460;SDS011;47325;50.506;4.472;2022-10-29T18:18:42;14.00;;;5.10;;
61460;SDS011;47325;50.506;4.472;2022-10-29T18:24:44;8.90;;;4.30;;
61460;SDS011;47325;50.506;4.472;2022-10-29T18:30:28;9.80;;;4.50;;
61460;SDS011;47325;50.506;4.472;2022-10-29T18:36:11;10.10;;;4.50;;
61460;SDS011;47325;50.506;4.472;2022-10-29T18:41:55;9.80;;;5.10;;
61460;SDS011;47325;50.506;4.472;2022-10-29T18:47:38;12.10;;;4.80;;
61460;SDS011;47325;50.506;4.472;2022-10-29T18:53:21;7.30;;;4.50;;
61460;SDS011;47325;50.506;4.472;2022-10-29T18:59:05;10.30;;;4.90;;
61460;SDS011;47325;50.506;4.472;2022-10-29T19:04:49;7.30;;;4.50;;
61460;SDS011;47325;50.506;4.472;2022-10-29T19:10:32;9.20;;;4.50;;
61460;SDS011;47325;50.506;4.472;2022-10-29T19:16:16;9.80;;;4.70;;
61460;SDS011;47325;50.506;4.472;2022-10-29T19:22:00;7.80;;;4.50;;
61460;SDS011;47325;50.506;4.472;2022-10-29T19:27:44;10.10;;;4.90;;
61460;SDS011;47325;50.506;4.472;2022-10-29T19:33:27;10.40;;;4.50;;
61460;SDS011;47325;50.506;4.472;2022-10-29T19:39:12;10.40;;;4.50;;
61460;SDS011;47325;50.506;4.472;2022-10-29T19:44:56;9.60;;;4.60;;
61460;SDS011;47325;50.506;4.472;2022-10-29T19:50:39;8.70;;;4.90;;
61460;SDS011;47325;50.506;4.472;2022-10-29T19:56:23;9.80;;;4.80;;
61460;SDS011;47325;50.506;4.472;2022-10-29T20:02:07;7.80;;;4.70;;
61460;SDS011;47325;50.506;4.472;2022-10-29T20:07:51;10.10;;;4.90;;
61460;SDS011;47325;50.506;4.472;2022-10-29T20:13:37;9.10;;;4.80;;
61460;SDS011;47325;50.506;4.472;2022-10-29T20:19:22;11.40;;;4.90;;
61460;SDS011;47325;50.506;4.472;2022-10-29T20:25:06;8.20;;;4.90;;
61460;SDS011;47325;50.506;4.472;2022-10-29T20:30:50;8.80;;;5.10;;
61460;SDS011;47325;50.506;4.472;2022-10-29T20:36:38;10.50;;;4.90;;
61460;SDS011;47325;50.506;4.472;2022-10-29T20:42:23;9.70;;;4.90;;
61460;SDS011;47325;50.506;4.472;2022-10-29T20:48:07;9.60;;;5.00;;
61460;SDS011;47325;50.506;4.472;2022-10-29T20:53:51;12.00;;;4.90;;
61460;SDS011;47325;50.506;4.472;2022-10-29T20:59:35;11.10;;;5.40;;
61460;SDS011;47325;50.506;4.472;2022-10-29T21:05:19;11.20;;;5.20;;
61460;SDS011;47325;50.506;4.472;2022-10-29T21:11:05;10.90;;;5.60;;
61460;SDS011;47325;50.506;4.472;2022-10-29T21:16:48;11.70;;;5.60;;
61460;SDS011;47325;50.506;4.472;2022-10-29T21:22:32;11.70;;;5.40;;
61460;SDS011;47325;50.506;4.472;2022-10-29T21:28:16;10.80;;;5.40;;
61460;SDS011;47325;50.506;4.472;2022-10-29T21:34:07;10.40;;;5.50;;
61460;SDS011;47325;50.506;4.472;2022-10-29T21:39:56;9.80;;;5.10;;
61460;SDS011;47325;50.506;4.472;2022-10-29T21:45:54;8.80;;;5.20;;
61460;SDS011;47325;50.506;4.472;2022-10-29T21:51:50;10.70;;;5.50;;
61460;SDS011;47325;50.506;4.472;2022-10-29T21:57:46;11.90;;;5.70;;
61460;SDS011;47325;50.506;4.472;2022-10-29T22:03:32;10.30;;;5.40;;
61460;SDS011;47325;50.506;4.472;2022-10-29T22:09:16;10.30;;;5.50;;
61460;SDS011;47325;50.506;4.472;2022-10-29T22:14:59;11.80;;;5.60;;
61460;SDS011;47325;50.506;4.472;2022-10-29T22:20:43;10.90;;;5.00;;
61460;SDS011;47325;50.506;4.472;2022-10-29T22:26:26;9.90;;;5.20;;
61460;SDS011;47325;50.506;4.472;2022-10-29T22:32:11;11.00;;;4.90;;
61460;SDS011;47325;50.506;4.472;2022-10-29T22:37:55;11.30;;;5.20;;
61460;SDS011;47325;50.506;4.472;2022-10-29T22:43:39;9.10;;;4.60;;
61460;SDS011;47325;50.506;4.472;2022-10-29T22:49:23;9.60;;;5.10;;
61460;SDS011;47325;50.506;4.472;2022-10-29T22:55:06;9.70;;;4.70;;
61460;SDS011;47325;50.506;4.472;2022-10-29T23:00:51;10.00;;;4.80;;
61460;SDS011;47325;50.506;4.472;2022-10-29T23:06:39;8.30;;;4.60;;
61460;SDS011;47325;50.506;4.472;2022-10-29T23:12:22;9.10;;;4.90;;
61460;SDS011;47325;50.506;4.472;2022-10-29T23:18:06;11.50;;;4.50;;
61460;SDS011;47325;50.506;4.472;2022-10-29T23:23:49;10.40;;;4.90;;
61460;SDS011;47325;50.506;4.472;2022-10-29T23:29:32;8.60;;;4.60;;
61460;SDS011;47325;50.506;4.472;2022-10-29T23:35:15;9.40;;;4.50;;
61460;SDS011;47325;50.506;4.472;2022-10-29T23:40:59;8.50;;;4.50;;
61460;SDS011;47325;50.506;4.472;2022-10-29T23:46:42;8.90;;;4.60;;
61460;SDS011;47325;50.506;4.472;2022-10-29T23:52:25;9.60;;;4.40;;
61460;SDS011;47325;50.506;4.472;2022-10-29T23:58:09;9.70;;;4.80;;
